createdAt,value
2018-08-30T00:00:52.603Z,99948.22
2018-08-30T00:03:21.607Z,99945.20
2018-08-30T00:05:50.564Z,99946.56
2018-08-30T00:08:19.650Z,99945.02
2018-08-30T00:10:48.790Z,99938.13
2018-08-30T00:13:17.881Z,99931.30
2018-08-30T00:15:46.905Z,99935.70
2018-08-30T00:18:15.935Z,99940.55
2018-08-30T00:20:44.892Z,99947.98
2018-08-30T00:23:13.958Z,99944.78
2018-08-30T00:25:43.156Z,99947.22
2018-08-30T00:28:12.179Z,99939.26
2018-08-30T00:30:41.262Z,99941.64
2018-08-30T00:33:10.228Z,99942.57
2018-08-30T00:35:39.240Z,99945.64
2018-08-30T00:38:08.229Z,99935.38
2018-08-30T00:40:37.197Z,99944.75
2018-08-30T00:43:06.282Z,99943.58
2018-08-30T00:45:35.301Z,99945.09
2018-08-30T00:48:04.346Z,99942.83
2018-08-30T00:50:33.337Z,99936.72
2018-08-30T00:53:02.364Z,99935.28
2018-08-30T00:55:31.339Z,99934.64
2018-08-30T00:58:00.309Z,99940.02
2018-08-30T01:00:29.340Z,99931.76
2018-08-30T01:02:58.420Z,99938.53
2018-08-30T01:05:27.466Z,99937.31
2018-08-30T01:07:56.516Z,99935.88
2018-08-30T01:10:25.591Z,99933.98
2018-08-30T01:12:55.812Z,99933.69
2018-08-30T01:15:26.985Z,99932.80
2018-08-30T01:17:56.604Z,99929.78
2018-08-30T01:20:25.616Z,99924.02
2018-08-30T01:22:54.596Z,99925.69
2018-08-30T01:25:23.580Z,99924.33
2018-08-30T01:27:52.596Z,99926.75
2018-08-30T01:30:21.620Z,99930.30
2018-08-30T01:32:50.659Z,99924.02
2018-08-30T01:35:19.661Z,99926.14
2018-08-30T01:37:48.613Z,99922.50
2018-08-30T01:40:17.640Z,99925.19
2018-08-30T01:42:46.704Z,99930.25
2018-08-30T01:45:15.728Z,99929.03
2018-08-30T01:47:44.730Z,99931.41
2018-08-30T01:50:13.872Z,99929.97
2018-08-30T01:52:42.904Z,99934.81
2018-08-30T01:55:12.031Z,99934.23
2018-08-30T01:57:41.045Z,99939.13
2018-08-30T02:00:10.024Z,99932.87
2018-08-30T02:02:39.046Z,99936.95
2018-08-30T02:05:08.050Z,99942.02
2018-08-30T02:07:37.072Z,99937.55
2018-08-30T02:10:06.232Z,99938.39
2018-08-30T02:12:35.237Z,99942.70
2018-08-30T02:15:04.190Z,99939.09
2018-08-30T02:17:33.193Z,99938.48
2018-08-30T02:20:02.221Z,99947.27
2018-08-30T02:22:31.240Z,99939.09
2018-08-30T02:25:00.263Z,99945.28
2018-08-30T02:27:29.204Z,99949.07
2018-08-30T02:29:58.208Z,99951.18
2018-08-30T02:32:27.226Z,99950.88
2018-08-30T02:34:56.185Z,99950.57
2018-08-30T02:37:25.156Z,99949.05
2018-08-30T02:39:54.181Z,99949.97
2018-08-30T02:42:23.256Z,99948.13
2018-08-30T02:44:52.217Z,99949.72
2018-08-30T02:47:21.172Z,99948.30
2018-08-30T02:49:50.128Z,99945.58
2018-08-30T02:52:19.132Z,99948.22
2018-08-30T02:54:48.093Z,99945.19
2018-08-30T02:57:17.044Z,99941.33
2018-08-30T02:59:46.069Z,99944.36
2018-08-30T03:02:15.073Z,99944.97
2018-08-30T03:04:44.197Z,99942.55
2018-08-30T03:07:13.317Z,99939.52
2018-08-30T03:09:42.287Z,99943.30
2018-08-30T03:12:11.313Z,99942.24
2018-08-30T03:14:40.248Z,99947.69
2018-08-30T03:17:09.368Z,99950.02
2018-08-30T03:19:38.329Z,99948.13
2018-08-30T03:22:07.405Z,99950.24
2018-08-30T03:24:36.380Z,99951.02
2018-08-30T03:27:05.376Z,99956.16
2018-08-30T03:29:34.392Z,99965.83
2018-08-30T03:32:03.324Z,99958.34
2018-08-30T03:34:32.344Z,99959.31
2018-08-30T03:37:01.296Z,99964.45
2018-08-30T03:39:30.308Z,99961.12
2018-08-30T03:41:59.323Z,99969.59
2018-08-30T03:44:28.283Z,99969.89
2018-08-30T03:46:57.321Z,99970.52
2018-08-30T03:49:26.289Z,99970.37
2018-08-30T03:51:55.481Z,99973.68
2018-08-30T03:54:24.541Z,99967.66
2018-08-30T03:56:53.545Z,99963.41
2018-08-30T03:59:22.560Z,99965.22
2018-08-30T04:01:51.516Z,99961.61
2018-08-30T04:04:20.576Z,99961.91
2018-08-30T04:06:49.615Z,99970.11
2018-08-30T04:09:18.757Z,99974.49
2018-08-30T04:11:47.715Z,99978.87
2018-08-30T04:14:16.782Z,99984.35
2018-08-30T04:16:45.743Z,99986.84
2018-08-30T04:19:14.700Z,99986.08
2018-08-30T04:21:43.754Z,99987.42
2018-08-30T04:24:12.819Z,99981.11
2018-08-30T04:26:41.858Z,99980.09
2018-08-30T04:29:10.926Z,99985.89
2018-08-30T04:31:40.049Z,99984.55
2018-08-30T04:34:09.090Z,99986.73
2018-08-30T04:36:38.035Z,99984.60
2018-08-30T04:39:08.851Z,99992.45
2018-08-30T04:41:38.264Z,99983.50
2018-08-30T04:44:07.326Z,99987.52
2018-08-30T04:46:36.400Z,99986.35
2018-08-30T04:49:05.406Z,99987.35
2018-08-30T04:51:34.443Z,99981.94
2018-08-30T04:54:03.590Z,99993.34
2018-08-30T04:56:32.688Z,99992.05
2018-08-30T04:59:01.770Z,99992.09
2018-08-30T05:01:30.777Z,99993.03
2018-08-30T05:03:59.928Z,99991.58
2018-08-30T05:06:28.999Z,99993.53
2018-08-30T05:08:58.003Z,100000.42
2018-08-30T05:11:27.123Z,100004.27
2018-08-30T05:13:56.151Z,100007.78
2018-08-30T05:16:25.166Z,100007.64
2018-08-30T05:18:54.208Z,100005.98
2018-08-30T05:21:23.240Z,100001.03
2018-08-30T05:23:52.239Z,100002.49
2018-08-30T05:26:21.272Z,99997.38
2018-08-30T05:28:50.271Z,100005.71
2018-08-30T05:31:19.373Z,100005.97
2018-08-30T05:33:48.380Z,100009.63
2018-08-30T05:36:17.458Z,100014.34
2018-08-30T05:38:46.472Z,100022.41
2018-08-30T05:41:15.428Z,100017.97
2018-08-30T05:43:44.448Z,100017.09
2018-08-30T05:46:13.400Z,100017.42
2018-08-30T05:48:42.472Z,100012.49
2018-08-30T05:51:11.541Z,100005.80
2018-08-30T05:53:40.551Z,100004.61
2018-08-30T05:56:09.665Z,100004.02
2018-08-30T05:58:38.660Z,99999.91
2018-08-30T06:01:07.728Z,100000.44
2018-08-30T06:03:36.729Z,100001.00
2018-08-30T06:06:05.802Z,99996.98
2018-08-30T06:08:34.834Z,99998.16
2018-08-30T06:11:03.791Z,99998.91
2018-08-30T06:13:32.752Z,100004.83
2018-08-30T06:16:01.706Z,100010.48
2018-08-30T06:18:30.721Z,100007.42
2018-08-30T06:20:59.683Z,100004.81
2018-08-30T06:23:28.765Z,100014.80
2018-08-30T06:25:57.885Z,100013.78
2018-08-30T06:28:26.970Z,100015.56
2018-08-30T06:30:55.956Z,100013.78
2018-08-30T06:33:24.892Z,100018.67
2018-08-30T06:35:53.896Z,100020.41
2018-08-30T06:38:22.851Z,100014.97
2018-08-30T06:40:51.880Z,100020.05
2018-08-30T06:43:20.872Z,100018.89
2018-08-30T06:45:49.874Z,100023.36
2018-08-30T06:48:18.869Z,100023.08
2018-08-30T06:50:47.888Z,100025.11
2018-08-30T06:53:16.856Z,100023.64
2018-08-30T06:55:45.929Z,100024.55
2018-08-30T06:58:15.049Z,100024.13
2018-08-30T07:00:44.060Z,100025.86
2018-08-30T07:03:13.024Z,100025.17
2018-08-30T07:05:41.975Z,100030.77
2018-08-30T07:08:11.068Z,100027.64
2018-08-30T07:10:40.228Z,100034.64
2018-08-30T07:13:09.244Z,100036.64
2018-08-30T07:15:38.433Z,100036.65
2018-08-30T07:18:07.421Z,100036.52
2018-08-30T07:20:36.361Z,100034.41
2018-08-30T07:23:05.433Z,100041.77
2018-08-30T07:25:34.365Z,100037.23
2018-08-30T07:28:03.376Z,100036.66
2018-08-30T07:30:32.312Z,100035.84
2018-08-30T07:33:01.393Z,100033.84
2018-08-30T07:35:30.336Z,100040.83
2018-08-30T07:37:59.393Z,100042.34
2018-08-30T07:40:28.469Z,100044.89
2018-08-30T07:42:57.476Z,100042.38
2018-08-30T07:45:26.493Z,100039.11
2018-08-30T07:47:55.639Z,100038.89
2018-08-30T07:50:24.656Z,100043.66
2018-08-30T07:52:53.700Z,100042.27
2018-08-30T07:55:22.692Z,100045.26
2018-08-30T07:57:51.708Z,100044.73
2018-08-30T08:00:20.807Z,100048.16
2018-08-30T08:02:49.864Z,100043.33
2018-08-30T08:05:18.857Z,100043.27
2018-08-30T08:07:47.949Z,100037.16
2018-08-30T08:10:16.912Z,100035.01
2018-08-30T08:12:46.026Z,100037.74
2018-08-30T08:15:15.053Z,100035.66
2018-08-30T08:17:44.101Z,100043.71
2018-08-30T08:20:13.180Z,100039.22
2018-08-30T08:22:42.185Z,100036.37
2018-08-30T08:25:11.149Z,100035.28
2018-08-30T08:27:40.142Z,100035.59
2018-08-30T08:30:09.155Z,100032.82
2018-08-30T08:32:38.221Z,100042.77
2018-08-30T08:35:07.630Z,100035.83
2018-08-30T08:37:36.675Z,100031.71
2018-08-30T08:40:05.877Z,100037.36
2018-08-30T08:42:34.818Z,100033.89
2018-08-30T08:45:03.828Z,100037.72
2018-08-30T08:47:32.795Z,100035.38
2018-08-30T08:50:01.960Z,100039.98
2018-08-30T08:52:31.013Z,100035.50
2018-08-30T08:55:00.103Z,100031.63
2018-08-30T08:57:29.192Z,100027.55
2018-08-30T08:59:58.199Z,100032.28
2018-08-30T09:02:27.283Z,100025.41
2018-08-30T09:04:56.376Z,100027.05
2018-08-30T09:07:25.413Z,100030.77
2018-08-30T09:09:54.464Z,100036.06
2018-08-30T09:12:23.552Z,100031.37
2018-08-30T09:14:52.525Z,100038.23
2018-08-30T09:17:21.455Z,100036.84
2018-08-30T09:19:50.452Z,100036.58
2018-08-30T09:22:19.461Z,100032.76
2018-08-30T09:24:48.421Z,100029.75
2018-08-30T09:27:17.444Z,100031.39
2018-08-30T09:29:46.626Z,100034.83
2018-08-30T09:32:15.680Z,100025.10
2018-08-30T09:34:44.888Z,100031.50
2018-08-30T09:37:14.706Z,100022.63
2018-08-30T09:39:44.911Z,100031.56
2018-08-30T09:42:14.327Z,100027.37
2018-08-30T09:44:43.292Z,100024.79
2018-08-30T09:47:12.329Z,100028.91
2018-08-30T09:49:41.399Z,100016.62
2018-08-30T09:52:10.441Z,100013.38
2018-08-30T09:54:39.500Z,100012.25
2018-08-30T09:57:08.622Z,100003.76
2018-08-30T09:59:37.684Z,100000.66
2018-08-30T10:02:11.668Z,100002.87
2018-08-30T10:04:40.818Z,100009.16
2018-08-30T10:07:09.927Z,100000.53
2018-08-30T10:09:38.924Z,100002.11
2018-08-30T10:12:07.880Z,100003.88
2018-08-30T10:14:36.892Z,100008.44
2018-08-30T10:17:05.935Z,100007.30
2018-08-30T10:19:34.948Z,100005.34
2018-08-30T10:22:04.105Z,100002.50
2018-08-30T10:24:33.127Z,99998.97
2018-08-30T10:27:02.091Z,100004.05
2018-08-30T10:29:31.053Z,100004.25
2018-08-30T10:32:00.152Z,99993.70
2018-08-30T10:34:29.133Z,99992.05
2018-08-30T10:36:58.235Z,99995.18
2018-08-30T10:39:27.284Z,99984.85
2018-08-30T10:41:56.356Z,99980.02
2018-08-30T10:44:25.425Z,99982.98
2018-08-30T10:46:54.466Z,99978.30
2018-08-30T10:49:23.557Z,99967.91
2018-08-30T10:51:52.564Z,99968.23
2018-08-30T10:54:21.589Z,99964.22
2018-08-30T10:56:50.674Z,99964.78
2018-08-30T10:59:19.808Z,99973.09
2018-08-30T11:01:48.832Z,99970.45
2018-08-30T11:04:18.018Z,99971.80
2018-08-30T11:06:47.136Z,99961.88
2018-08-30T11:09:16.192Z,99969.45
2018-08-30T11:11:45.166Z,99966.23
2018-08-30T11:14:14.246Z,99968.14
2018-08-30T11:16:43.246Z,99961.43
2018-08-30T11:19:12.253Z,99956.30
2018-08-30T11:21:41.281Z,99954.25
2018-08-30T11:24:10.881Z,99953.86
2018-08-30T11:26:39.888Z,99949.89
2018-08-30T11:29:08.944Z,99949.98
2018-08-30T11:31:37.977Z,99949.45
2018-08-30T11:34:07.357Z,99948.04
2018-08-30T11:36:36.308Z,99942.77
2018-08-30T11:39:06.798Z,99943.02
2018-08-30T11:41:36.055Z,99931.47
2018-08-30T11:44:04.917Z,99939.70
2018-08-30T11:46:34.053Z,99935.78
2018-08-30T11:49:03.080Z,99936.03
2018-08-30T11:51:32.100Z,99935.97
2018-08-30T11:54:01.064Z,99930.84
2018-08-30T11:56:30.152Z,99929.72
2018-08-30T11:58:59.105Z,99922.31
2018-08-30T12:01:28.119Z,99929.72
2018-08-30T12:03:57.838Z,99927.51
2018-08-30T12:06:27.120Z,99924.61
2018-08-30T12:08:56.384Z,99927.16
2018-08-30T12:11:25.351Z,99923.41
2018-08-30T12:13:54.347Z,99923.47
2018-08-30T12:16:23.421Z,99923.95
2018-08-30T12:18:52.553Z,99923.41
2018-08-30T12:21:21.568Z,99923.05
2018-08-30T12:23:50.548Z,99918.58
2018-08-30T12:26:19.663Z,99916.25
2018-08-30T12:28:48.970Z,99915.63
2018-08-30T12:31:18.035Z,99908.36
2018-08-30T12:33:47.176Z,99912.09
2018-08-30T12:36:16.199Z,99905.37
2018-08-30T12:38:45.227Z,99900.84
2018-08-30T12:41:14.281Z,99906.48
2018-08-30T12:43:43.298Z,99902.41
2018-08-30T12:46:12.299Z,99902.79
2018-08-30T12:48:41.363Z,99901.30
2018-08-30T12:51:10.509Z,99898.02
2018-08-30T12:53:39.524Z,99902.90
2018-08-30T12:56:08.715Z,99894.09
2018-08-30T12:58:37.856Z,99893.13
2018-08-30T13:01:06.937Z,99891.27
2018-08-30T13:03:36.044Z,99889.01
2018-08-30T13:06:05.394Z,99886.70
2018-08-30T13:08:34.309Z,99882.00
2018-08-30T13:11:03.339Z,99882.73
2018-08-30T13:13:32.332Z,99878.48
2018-08-30T13:16:01.344Z,99881.67
2018-08-30T13:18:30.379Z,99882.59
2018-08-30T13:20:59.361Z,99881.86
2018-08-30T13:23:28.369Z,99886.20
2018-08-30T13:25:57.453Z,99883.70
2018-08-30T13:28:26.546Z,99879.77
2018-08-30T13:30:55.587Z,99875.96
2018-08-30T13:33:24.876Z,99877.73
2018-08-30T13:35:54.097Z,99871.70
2018-08-30T13:38:23.385Z,99875.08
2018-08-30T13:40:53.048Z,99875.05
2018-08-30T13:43:22.131Z,99879.78
2018-08-30T13:45:51.497Z,99872.02
2018-08-30T13:48:20.822Z,99876.47
2018-08-30T13:50:50.306Z,99872.30
2018-08-30T13:53:19.569Z,99867.92
2018-08-30T13:55:48.985Z,99869.89
2018-08-30T13:58:17.712Z,99872.84
2018-08-30T14:00:47.325Z,99871.54
2018-08-30T14:03:16.535Z,99874.89
2018-08-30T14:05:45.900Z,99869.13
2018-08-30T14:08:15.026Z,99868.36
2018-08-30T14:10:44.419Z,99860.78
2018-08-30T14:13:13.488Z,99866.60
2018-08-30T14:15:42.176Z,99868.23
2018-08-30T14:18:11.207Z,99863.80
2018-08-30T14:20:40.245Z,99859.52
2018-08-30T14:23:09.402Z,99857.36
2018-08-30T14:25:38.768Z,99855.50
2018-08-30T14:28:08.396Z,99849.05
2018-08-30T14:30:37.417Z,99850.28
2018-08-30T14:33:06.521Z,99847.33
2018-08-30T14:35:35.725Z,99851.50
2018-08-30T14:38:04.983Z,99850.20
2018-08-30T14:40:34.436Z,99846.69
2018-08-30T14:43:03.385Z,99852.16
2018-08-30T14:45:32.340Z,99858.89
2018-08-30T14:48:01.510Z,99858.98
2018-08-30T14:50:30.480Z,99857.55
2018-08-30T14:52:59.778Z,99860.16
2018-08-30T14:55:28.976Z,99858.16
2018-08-30T14:57:58.294Z,99852.69
2018-08-30T15:00:27.318Z,99854.30
2018-08-30T15:02:56.453Z,99857.45
2018-08-30T15:05:25.649Z,99856.67
2018-08-30T15:07:54.824Z,99853.23
2018-08-30T15:10:24.151Z,99850.77
2018-08-30T15:12:53.210Z,99850.66
2018-08-30T15:15:22.248Z,99846.34
2018-08-30T15:17:51.340Z,99845.22
2018-08-30T15:20:20.347Z,99854.45
2018-08-30T15:22:49.285Z,99849.24
2018-08-30T15:25:18.296Z,99843.33
2018-08-30T15:27:47.357Z,99844.23
2018-08-30T15:30:16.526Z,99852.24
2018-08-30T15:32:45.426Z,99850.89
2018-08-30T15:35:14.472Z,99850.18
2018-08-30T15:37:43.540Z,99853.52
2018-08-30T15:40:12.529Z,99855.20
2018-08-30T15:42:41.608Z,99852.53
2018-08-30T15:45:10.645Z,99847.06
2018-08-30T15:47:39.626Z,99851.81
2018-08-30T15:50:09.046Z,99848.29
2018-08-30T15:52:38.465Z,99851.20
2018-08-30T15:55:07.623Z,99849.06
2018-08-30T15:57:36.542Z,99844.18
2018-08-30T16:00:05.897Z,99844.34
2018-08-30T16:02:34.897Z,99846.68
2018-08-30T16:05:03.872Z,99850.13
2018-08-30T16:07:32.936Z,99853.26
2018-08-30T16:10:02.142Z,99849.75
2018-08-30T16:12:31.154Z,99844.37
2018-08-30T16:15:00.153Z,99848.31
2018-08-30T16:17:29.208Z,99850.69
2018-08-30T16:19:58.229Z,99850.55
2018-08-30T16:22:53.164Z,99858.72
2018-08-30T16:25:22.215Z,99857.02
2018-08-30T16:27:51.285Z,99859.94
2018-08-30T16:30:20.475Z,99859.80
2018-08-30T16:32:49.502Z,99867.72
2018-08-30T16:35:18.732Z,99862.63
2018-08-30T16:37:47.745Z,99862.16
2018-08-30T16:40:16.837Z,99857.60
2018-08-30T16:42:45.944Z,99863.25
2018-08-30T16:45:14.916Z,99869.14
2018-08-30T16:47:44.050Z,99863.70
2018-08-30T16:50:13.076Z,99862.11
2018-08-30T16:52:42.102Z,99863.30
2018-08-30T16:55:11.141Z,99863.08
2018-08-30T16:57:40.160Z,99870.33
2018-08-30T17:00:09.140Z,99870.63
2018-08-30T17:02:38.180Z,99872.33
2018-08-30T17:05:07.233Z,99867.66
2018-08-30T17:07:36.225Z,99871.00
2018-08-30T17:10:05.293Z,99874.01
2018-08-30T17:12:34.512Z,99880.34
2018-08-30T17:15:03.745Z,99872.89
2018-08-30T17:17:33.026Z,99874.81
2018-08-30T17:20:01.952Z,99874.25
2018-08-30T17:22:31.040Z,99873.70
2018-08-30T17:25:00.083Z,99884.67
2018-08-30T17:27:29.115Z,99876.91
2018-08-30T17:29:58.101Z,99885.98
2018-08-30T17:32:27.156Z,99890.09
2018-08-30T17:34:56.321Z,99884.59
2018-08-30T17:37:25.377Z,99881.00
2018-08-30T17:39:54.510Z,99886.75
2018-08-30T17:42:23.639Z,99891.67
2018-08-30T17:44:52.786Z,99888.36
2018-08-30T17:47:21.766Z,99891.64
2018-08-30T17:49:50.735Z,99889.13
2018-08-30T17:52:19.872Z,99894.05
2018-08-30T17:54:48.894Z,99902.28
2018-08-30T17:57:17.928Z,99898.61
2018-08-30T17:59:46.994Z,99903.26
2018-08-30T18:02:16.020Z,99906.51
2018-08-30T18:04:45.187Z,99918.03
2018-08-30T18:07:14.270Z,99924.82
2018-08-30T18:09:43.235Z,99926.11
2018-08-30T18:12:12.172Z,99931.27
2018-08-30T18:14:41.189Z,99928.78
2018-08-30T18:17:10.260Z,99931.18
2018-08-30T18:19:39.248Z,99936.64
2018-08-30T18:22:08.336Z,99935.20
2018-08-30T18:24:37.525Z,99935.44
2018-08-30T18:27:06.903Z,99932.91
2018-08-30T18:29:35.945Z,99939.77
2018-08-30T18:32:04.998Z,99935.38
2018-08-30T18:34:34.049Z,99932.30
2018-08-30T18:37:03.008Z,99933.64
2018-08-30T18:39:32.080Z,99939.64
2018-08-30T18:42:01.152Z,99942.31
2018-08-30T18:44:30.220Z,99938.95
2018-08-30T18:46:59.308Z,99941.09
2018-08-30T18:49:32.875Z,99942.63
2018-08-30T18:52:01.983Z,99949.42
2018-08-30T18:54:31.924Z,99870.97
2018-08-30T18:57:00.910Z,99950.42
2018-08-30T18:59:29.964Z,99946.01
2018-08-30T19:01:59.137Z,99948.38
2018-08-30T19:04:28.177Z,99942.53
2018-08-30T19:06:57.272Z,99946.89
2018-08-30T19:09:26.331Z,99950.97
2018-08-30T19:11:55.358Z,99943.90
2018-08-30T19:14:24.353Z,99949.72
2018-08-30T19:16:58.471Z,99952.50
2018-08-30T19:19:28.296Z,99955.03
2018-08-30T19:21:58.371Z,99956.69
2018-08-30T19:24:32.416Z,99955.03
2018-08-30T19:27:01.450Z,99955.53
2018-08-30T19:29:34.559Z,99959.59
2018-08-30T19:32:03.505Z,99960.72
2018-08-30T19:34:32.500Z,99962.67
2018-08-30T19:37:01.533Z,99960.68
2018-08-30T19:39:30.591Z,99957.86
2018-08-30T19:41:59.682Z,99965.78
2018-08-30T19:44:28.753Z,99964.13
2018-08-30T19:46:57.840Z,99963.55
2018-08-30T19:49:26.865Z,99972.27
2018-08-30T19:51:55.953Z,99964.78
2018-08-30T19:54:24.965Z,99971.92
2018-08-30T19:56:53.981Z,99973.74
2018-08-30T19:59:23.009Z,99975.10
2018-08-30T20:01:52.027Z,99963.84
2018-08-30T20:04:21.094Z,99972.31
2018-08-30T20:06:50.040Z,99971.20
2018-08-30T20:09:19.187Z,99974.72
2018-08-30T20:11:48.156Z,99978.53
2018-08-30T20:14:17.160Z,99974.33
2018-08-30T20:16:46.213Z,99965.27
2018-08-30T20:19:15.164Z,99965.80
2018-08-30T20:21:44.633Z,99971.48
2018-08-30T20:24:13.576Z,99976.08
2018-08-30T20:26:42.652Z,99977.19
2018-08-30T20:29:11.720Z,99976.91
2018-08-30T20:31:40.833Z,99979.84
2018-08-30T20:34:10.029Z,99978.67
2018-08-30T20:36:38.992Z,99978.90
2018-08-30T20:39:08.076Z,99974.69
2018-08-30T20:41:37.206Z,99980.37
2018-08-30T20:44:06.393Z,99982.52
2018-08-30T20:46:35.404Z,99986.58
2018-08-30T20:49:04.423Z,99987.34
2018-08-30T20:51:33.389Z,99987.88
2018-08-30T20:54:02.359Z,99994.13
2018-08-30T20:56:31.469Z,99990.56
2018-08-30T20:59:00.526Z,99996.27
2018-08-30T21:01:29.668Z,99990.09
2018-08-30T21:03:58.720Z,99994.42
2018-08-30T21:06:27.789Z,99989.68
2018-08-30T21:08:57.001Z,99988.19
2018-08-30T21:11:26.082Z,99992.21
2018-08-30T21:13:55.240Z,99985.56
2018-08-30T21:16:24.198Z,99993.63
2018-08-30T21:18:53.256Z,99995.19
2018-08-30T21:21:22.269Z,99997.25
2018-08-30T21:23:51.293Z,99999.07
2018-08-30T21:26:20.308Z,99998.92
2018-08-30T21:28:49.330Z,99994.20
2018-08-30T21:31:18.352Z,99995.80
2018-08-30T21:33:47.428Z,99993.84
2018-08-30T21:36:16.497Z,99989.45
2018-08-30T21:38:45.521Z,99991.27
2018-08-30T21:41:14.564Z,99988.17
2018-08-30T21:43:43.542Z,99992.48
2018-08-30T21:46:12.632Z,99992.37
2018-08-30T21:48:41.607Z,99993.14
2018-08-30T21:51:10.795Z,99997.74
2018-08-30T21:53:39.839Z,99999.52
2018-08-30T21:56:08.922Z,99999.76
2018-08-30T21:58:37.920Z,100004.75
2018-08-30T22:01:06.949Z,99999.76
2018-08-30T22:03:35.917Z,100000.83
2018-08-30T22:06:04.953Z,100004.66
2018-08-30T22:08:33.949Z,99997.53
2018-08-30T22:11:02.999Z,99999.13
2018-08-30T22:13:32.114Z,100001.33
2018-08-30T22:16:01.068Z,100004.83
2018-08-30T22:18:30.153Z,100006.73
2018-08-30T22:20:59.138Z,99997.61
2018-08-30T22:23:28.173Z,99995.82
2018-08-30T22:25:57.180Z,99995.72
2018-08-30T22:28:26.192Z,99995.13
2018-08-30T22:30:55.261Z,100003.16
2018-08-30T22:33:24.272Z,100005.59
2018-08-30T22:35:53.236Z,100003.92
2018-08-30T22:38:22.259Z,100003.86
2018-08-30T22:40:51.326Z,100003.30
2018-08-30T22:43:20.326Z,100002.30
2018-08-30T22:45:49.393Z,100001.36
2018-08-30T22:48:18.402Z,100002.29
2018-08-30T22:50:47.396Z,100004.92
2018-08-30T22:53:16.427Z,100005.61
2018-08-30T22:55:45.377Z,100005.05
2018-08-30T22:58:14.393Z,99998.38
2018-08-30T23:00:43.340Z,100003.66
2018-08-30T23:03:12.352Z,99994.88
2018-08-30T23:05:41.411Z,99999.73
2018-08-30T23:08:10.469Z,100003.71
2018-08-30T23:10:39.529Z,100002.34
2018-08-30T23:13:08.993Z,100002.05
2018-08-30T23:15:37.964Z,100001.81
2018-08-30T23:18:06.970Z,100002.95
2018-08-30T23:20:36.159Z,100006.21
2018-08-30T23:23:05.136Z,100001.28
2018-08-30T23:25:34.120Z,100003.71
2018-08-30T23:28:03.083Z,100005.12
2018-08-30T23:30:32.085Z,100003.91
2018-08-30T23:33:01.019Z,100002.14
2018-08-30T23:35:29.962Z,100003.66
2018-08-30T23:37:59.057Z,100002.78
2018-08-30T23:40:28.008Z,99997.78
2018-08-30T23:42:57.893Z,100000.97
2018-08-30T23:45:26.848Z,99997.59
2018-08-30T23:47:55.776Z,99994.48
2018-08-30T23:50:24.731Z,99994.64
2018-08-30T23:52:53.778Z,99991.30
2018-08-30T23:55:22.797Z,99994.78
2018-08-30T23:58:02.732Z,99994.71
